Time;durP1;ratioP1;P1;durP2;ratioP2;P2;SDS_P1;SDS_P2;PMS_P1;PMS_P2;Temp;Humidity;BMP_temperature;BMP_pressure;BME280_temperature;BME280_humidity;BME280_pressure;Samples;Min_cycle;Max_cycle;Signal;HPM_P1;HPM_P2
2023/10/09 00:01:03;;;;;;;8.03;1.83;;;;;;;17.72;49.96;95246.16;5090169;28;20082;-71
2023/10/09 00:03:28;;;;;;;9.98;1.85;;;;;;;17.99;49.27;95258.25;5082698;28;20039;-71
2023/10/09 00:05:55;;;;;;;6.80;1.80;;;;;;;18.00;49.17;95259.91;5085955;28;20036;-72
2023/10/09 00:08:33;;;;;;;5.93;1.80;;;;;;;17.79;49.52;95253.28;5090609;28;20027;-71
2023/10/09 00:11:13;;;;;;;5.88;1.83;;;;;;;17.72;49.43;95241.75;5091696;28;20024;-71
2023/10/09 00:13:48;;;;;;;8.07;1.80;;;;;;;17.57;49.89;95243.34;5079024;28;20036;-71
2023/10/09 00:16:14;;;;;;;5.10;1.55;;;;;;;17.59;50.01;95251.91;5072692;28;20040;-71
2023/10/09 00:18:45;;;;;;;4.72;1.55;;;;;;;17.56;49.90;95254.84;5081206;28;20094;-72
2023/10/09 00:21:15;;;;;;;4.50;1.90;;;;;;;17.70;49.69;95253.41;5071875;28;20056;-71
2023/10/09 00:23:41;;;;;;;7.72;1.58;;;;;;;17.47;50.05;95240.00;5068505;28;20067;-72
2023/10/09 00:26:16;;;;;;;6.57;1.85;;;;;;;17.53;50.01;95255.16;5091701;28;20035;-71
2023/10/09 00:28:44;;;;;;;5.05;1.90;;;;;;;17.53;50.05;95252.53;5090895;28;20367;-71
2023/10/09 00:31:14;;;;;;;8.65;1.50;;;;;;;17.54;50.08;95260.25;5091609;28;20032;-72
2023/10/09 00:33:41;;;;;;;9.10;1.80;;;;;;;17.58;49.75;95255.50;5068601;28;20127;-71
2023/10/09 00:36:09;;;;;;;7.15;1.60;;;;;;;17.57;49.88;95264.34;5091779;28;20107;-71
2023/10/09 00:38:45;;;;;;;4.28;1.40;;;;;;;17.46;50.00;95268.09;5082682;28;20474;-71
2023/10/09 00:41:13;;;;;;;7.55;1.42;;;;;;;17.32;50.30;95264.25;5086473;28;20414;-71
2023/10/09 00:43:42;;;;;;;6.95;1.60;;;;;;;17.13;50.32;95233.00;5081667;28;20413;-71
2023/10/09 00:46:12;;;;;;;5.40;1.70;;;;;;;16.97;50.71;95260.81;5085941;28;20038;-71
2023/10/09 00:48:39;;;;;;;3.75;1.30;;;;;;;17.26;50.45;95271.94;5075208;28;20105;-71
2023/10/09 00:51:18;;;;;;;5.43;1.50;;;;;;;17.26;50.40;95277.19;5073483;28;20036;-71
2023/10/09 00:54:41;;;;;;;6.07;1.33;;;;;;;17.08;50.92;95270.22;5089916;28;20085;-71
2023/10/09 00:56:58;;;;;;;6.35;2.33;;;;;;;16.91;50.97;95269.31;5088094;28;20504;-71
2023/10/09 00:59:24;;;;;;;5.18;1.65;;;;;;;16.69;51.01;95238.31;5076473;28;20092;-72
2023/10/09 01:01:56;;;;;;;5.53;1.50;;;;;;;17.05;51.14;95272.31;5057031;28;20078;-71
2023/10/09 01:04:29;;;;;;;6.30;1.45;;;;;;;16.75;51.08;95232.44;5075429;28;20082;-71
2023/10/09 01:09:43;;;;;;;4.70;1.38;;;;;;;17.04;51.11;95283.81;5089143;28;20043;-71
2023/10/09 01:12:16;;;;;;;2.90;1.38;;;;;;;17.11;50.97;95279.59;5089281;28;20109;-71
2023/10/09 01:14:42;;;;;;;4.70;1.40;;;;;;;17.07;50.54;95265.13;5090688;28;20098;-71
2023/10/09 01:17:08;;;;;;;7.20;1.70;;;;;;;17.04;50.77;95304.78;5091161;28;20456;-72
2023/10/09 01:19:34;;;;;;;3.17;1.27;;;;;;;16.93;50.84;95303.25;5084768;28;20065;-71
2023/10/09 01:22:12;;;;;;;5.25;1.30;;;;;;;17.01;50.63;95326.09;5089152;28;20097;-71
2023/10/09 01:24:38;;;;;;;4.43;1.40;;;;;;;16.85;50.85;95317.13;5077896;28;20410;-71
2023/10/09 01:27:05;;;;;;;4.40;1.08;;;;;;;16.97;50.21;95320.34;5091966;28;20028;-72
2023/10/09 01:29:30;;;;;;;3.17;1.20;;;;;;;16.74;50.42;95309.47;5074137;28;20036;-71
2023/10/09 01:32:03;;;;;;;3.00;1.33;;;;;;;16.81;50.39;95326.28;5070158;28;20039;-72
2023/10/09 01:37:05;;;;;;;3.50;1.17;;;;;;;16.54;50.08;95330.63;5089667;28;20047;-72
2023/10/09 01:39:30;;;;;;;4.88;1.30;;;;;;;16.61;50.01;95322.19;5075289;28;20045;-72
2023/10/09 01:41:59;;;;;;;6.15;1.35;;;;;;;16.11;50.50;95296.50;5078118;28;20052;-73
2023/10/09 01:44:34;;;;;;;2.53;1.10;;;;;;;16.21;50.61;95344.41;5091447;28;20035;-71
2023/10/09 01:47:07;;;;;;;2.40;1.20;;;;;;;16.17;50.86;95345.69;5073585;28;20088;-71
2023/10/09 01:49:35;;;;;;;5.88;2.10;;;;;;;16.43;50.06;95343.97;5073481;28;20024;-72
2023/10/09 01:52:09;;;;;;;8.18;1.40;;;;;;;16.16;50.65;95329.16;5088878;28;20035;-72
2023/10/09 01:54:38;;;;;;;3.13;1.30;;;;;;;16.01;51.22;95349.78;5088271;28;20062;-71
2023/10/09 01:57:12;;;;;;;3.55;1.40;;;;;;;16.00;51.04;95368.28;5091511;28;20493;-71
2023/10/09 01:59:38;;;;;;;2.70;1.25;;;;;;;15.98;50.82;95370.22;5066408;28;20055;-72
2023/10/09 02:04:51;;;;;;;3.28;1.33;;;;;;;15.92;50.86;95366.41;5073968;28;20500;-72
2023/10/09 02:07:22;;;;;;;5.15;1.40;;;;;;;15.71;51.14;95371.03;5073404;28;20039;-71
2023/10/09 02:09:47;;;;;;;7.60;1.40;;;;;;;15.49;51.72;95375.66;5075834;28;20505;-72
2023/10/09 02:12:13;;;;;;;4.78;1.55;;;;;;;15.58;51.79;95385.28;5088661;28;20036;-71
2023/10/09 02:14:41;;;;;;;4.63;1.63;;;;;;;15.61;51.70;95389.41;5072654;28;20097;-71
2023/10/09 02:17:28;;;;;;;2.67;1.33;;;;;;;15.63;51.70;95390.91;5089760;28;20060;-71
2023/10/09 02:19:54;;;;;;;3.97;1.33;;;;;;;15.27;52.50;95396.97;5071359;28;20066;-71
2023/10/09 02:22:19;;;;;;;2.03;0.90;;;;;;;15.40;52.07;95389.59;5069648;28;20480;-71
2023/10/09 02:27:19;;;;;;;5.85;1.58;;;;;;;15.25;52.14;95398.88;5053509;28;20094;-71
2023/10/09 02:29:47;;;;;;;4.47;1.40;;;;;;;15.46;51.60;95403.91;5071358;28;20021;-71
2023/10/09 02:32:16;;;;;;;4.60;1.30;;;;;;;15.37;51.66;95388.09;5070939;28;20095;-71
2023/10/09 02:34:46;;;;;;;2.67;1.50;;;;;;;15.25;51.70;95398.88;5053650;28;20040;-71
2023/10/09 02:37:13;;;;;;;2.73;1.40;;;;;;;15.06;52.05;95400.56;5069819;28;20040;-72
2023/10/09 02:39:47;;;;;;;3.17;1.40;;;;;;;15.10;52.18;95406.31;5069853;28;20036;-71
2023/10/09 02:44:46;;;;;;;1.92;1.27;;;;;;;15.11;51.62;95421.09;5069741;28;20105;-71
2023/10/09 02:47:18;;;;;;;2.63;1.10;;;;;;;15.10;51.66;95428.13;5068888;28;20490;-71
2023/10/09 02:49:48;;;;;;;4.35;1.20;;;;;;;15.02;51.51;95412.28;5069822;28;20093;-71
2023/10/09 02:52:18;;;;;;;5.88;1.35;;;;;;;14.96;51.54;95425.94;5069592;28;20097;-72
2023/10/09 02:54:47;;;;;;;5.80;1.13;;;;;;;15.03;51.43;95437.47;5071802;28;20029;-71
2023/10/09 02:57:28;;;;;;;2.45;1.02;;;;;;;14.79;51.71;95416.13;5070731;28;20028;-72
2023/10/09 02:59:53;;;;;;;4.70;1.20;;;;;;;14.88;51.90;95431.03;5057205;28;20617;-71
2023/10/09 03:02:19;;;;;;;2.25;1.20;;;;;;;14.78;51.55;95423.16;5079626;28;20029;-71
2023/10/09 03:04:44;;;;;;;4.40;1.00;;;;;;;14.73;51.98;95431.41;5063421;28;20037;-72
2023/10/09 03:07:11;;;;;;;1.80;1.20;;;;;;;14.83;51.83;95441.06;5085596;28;20024;-72
2023/10/09 03:09:37;;;;;;;2.53;1.10;;;;;;;14.92;51.71;95441.06;5084929;28;20066;-72
2023/10/09 03:12:03;;;;;;;4.35;1.30;;;;;;;14.66;51.92;95427.72;5052113;28;20036;-72
2023/10/09 03:14:30;;;;;;;3.92;1.30;;;;;;;14.66;52.63;95456.47;5068962;28;20020;-72
2023/10/09 03:16:56;;;;;;;2.40;1.20;;;;;;;14.69;52.32;95439.69;5088723;28;20417;-72
2023/10/09 03:19:22;;;;;;;5.32;1.30;;;;;;;14.77;51.63;95446.84;5089331;28;20028;-72
2023/10/09 03:21:48;;;;;;;2.65;1.00;;;;;;;14.61;51.52;95442.97;5084925;28;20024;-73
2023/10/09 03:24:13;;;;;;;6.45;1.05;;;;;;;14.45;51.93;95460.94;5052179;28;20102;-72
2023/10/09 03:26:38;;;;;;;4.68;1.25;;;;;;;14.28;52.07;95446.75;5080203;28;20388;-72
2023/10/09 03:29:09;;;;;;;2.78;1.00;;;;;;;14.24;52.22;95472.31;5090735;28;20039;-72
2023/10/09 03:31:38;;;;;;;4.40;1.10;;;;;;;14.08;52.71;95469.38;5089582;28;20027;-72
2023/10/09 03:34:10;;;;;;;4.25;1.10;;;;;;;14.01;52.84;95465.63;5089364;28;20123;-72
2023/10/09 03:36:38;;;;;;;2.67;1.00;;;;;;;13.99;52.85;95467.56;5093015;28;20081;-71
2023/10/09 03:42:05;;;;;;;3.25;1.23;;;;;;;14.01;52.77;95463.88;5081269;28;20036;-72
2023/10/09 03:44:35;;;;;;;2.70;1.10;;;;;;;13.91;52.61;95433.44;5090106;28;20067;-71
2023/10/09 03:47:05;;;;;;;5.18;1.38;;;;;;;14.02;52.76;95459.47;5070847;28;20486;-75
2023/10/09 03:49:31;;;;;;;2.20;1.00;;;;;;;13.84;52.77;95461.84;5073654;28;20078;-72
2023/10/09 03:51:59;;;;;;;1.88;0.90;;;;;;;13.89;52.49;95459.69;5084513;28;20096;-72
2023/10/09 03:54:25;;;;;;;2.92;0.73;;;;;;;13.78;52.63;95457.16;5056553;28;20055;-72
2023/10/09 03:56:50;;;;;;;2.75;0.80;;;;;;;13.51;52.71;95448.13;5072612;28;20024;-72
2023/10/09 03:59:21;;;;;;;1.92;0.90;;;;;;;13.86;52.75;95475.63;5075932;28;20036;-72
2023/10/09 04:01:48;;;;;;;3.05;0.93;;;;;;;13.67;52.99;95478.97;5092966;28;20157;-72
2023/10/09 04:04:14;;;;;;;2.03;0.90;;;;;;;13.82;52.84;95487.31;5087696;28;20068;-72
2023/10/09 04:06:39;;;;;;;2.55;1.10;;;;;;;13.70;52.86;95473.47;5076640;28;20074;-72
2023/10/09 04:11:46;;;;;;;1.90;0.82;;;;;;;13.68;52.30;95491.09;5077792;28;20497;-72
2023/10/09 04:14:21;;;;;;;2.72;0.80;;;;;;;13.47;52.43;95482.44;5076072;28;20037;-72
2023/10/09 04:17:03;;;;;;;3.35;1.02;;;;;;;13.33;52.71;95488.81;5092620;28;20499;-72
2023/10/09 04:19:29;;;;;;;1.95;0.90;;;;;;;13.37;52.30;95482.34;5077219;28;20028;-70
2023/10/09 04:21:58;;;;;;;2.85;1.00;;;;;;;13.18;52.22;95436.91;5057579;28;20465;-71
2023/10/09 04:24:23;;;;;;;2.67;0.90;;;;;;;13.33;52.40;95489.63;5092123;28;20117;-71
2023/10/09 04:26:55;;;;;;;4.70;0.90;;;;;;;13.44;52.10;95477.47;5092269;28;20452;-70
2023/10/09 04:29:26;;;;;;;5.30;1.02;;;;;;;13.23;51.37;95448.72;5092471;28;20521;-71
2023/10/09 04:31:56;;;;;;;2.38;0.90;;;;;;;13.52;51.76;95490.72;5092378;28;20024;-71
2023/10/09 04:37:24;;;;;;;1.75;0.90;;;;;;;13.26;52.27;95495.47;5075972;28;20478;-71
2023/10/09 04:40:01;;;;;;;5.85;0.98;;;;;;;13.24;52.43;95502.59;5093416;28;20036;-71
2023/10/09 04:42:36;;;;;;;3.78;0.98;;;;;;;13.05;52.03;95488.44;5092110;28;20111;-71
2023/10/09 04:47:49;;;;;;;2.80;0.80;;;;;;;13.30;51.29;95489.88;5091852;28;20086;-71
2023/10/09 04:50:36;;;;;;;5.70;1.30;;;;;;;12.93;51.55;95492.88;5077156;28;20028;-71
2023/10/09 04:55:44;;;;;;;1.85;1.00;;;;;;;13.13;50.89;95500.84;5084319;28;20047;-71
2023/10/09 04:58:23;;;;;;;3.58;1.08;;;;;;;13.02;51.16;95513.94;5088349;28;20036;-71
2023/10/09 05:01:02;;;;;;;1.90;0.95;;;;;;;12.86;50.76;95506.53;5074603;28;20048;-71
2023/10/09 05:03:29;;;;;;;2.10;1.02;;;;;;;12.87;50.73;95488.16;5074468;28;20028;-71
2023/10/09 05:06:20;;;;;;;2.03;1.00;;;;;;;13.11;50.00;95498.34;5091505;28;20076;-71
2023/10/09 05:08:47;;;;;;;2.75;1.05;;;;;;;12.94;50.80;95506.75;5078076;28;20414;-71
2023/10/09 05:11:34;;;;;;;3.65;0.90;;;;;;;13.03;49.27;95505.97;5074555;28;20032;-71
2023/10/09 05:14:11;;;;;;;2.58;1.00;;;;;;;12.96;49.09;95505.66;5082907;28;20111;-71
2023/10/09 05:16:37;;;;;;;2.25;0.93;;;;;;;12.98;48.02;95518.56;5068529;28;20039;-70
2023/10/09 05:19:06;;;;;;;2.00;0.93;;;;;;;13.03;47.74;95516.41;5084721;28;20529;-71
2023/10/09 05:29:19;;;;;;;2.13;0.95;;;;;;;13.17;46.88;95533.53;5084028;28;19928;-71
2023/10/09 05:34:34;;;;;;;2.92;1.08;;;;;;;13.03;46.38;95531.25;5072090;28;20098;-71
2023/10/09 05:37:24;;;;;;;1.67;0.70;;;;;;;13.06;45.93;95531.81;5077280;28;20051;-71
2023/10/09 05:47:53;;;;;;;2.28;0.90;;;;;;;12.99;46.33;95554.13;5071122;28;20500;-71
2023/10/09 06:03:48;;;;;;;2.15;0.80;;;;;;;13.35;44.28;95596.50;5073585;28;20057;-71
2023/10/09 06:06:32;;;;;;;3.08;0.90;;;;;;;13.56;43.81;95588.66;5087933;28;20028;-70
2023/10/09 06:09:34;;;;;;;2.35;0.77;;;;;;;13.85;42.68;95586.28;5066713;28;20043;-73
2023/10/09 06:14:25;;;;;;;1.80;0.77;;;;;;;14.19;41.67;95586.03;5079114;28;20047;-71
2023/10/09 06:19:42;;;;;;;1.85;0.80;;;;;;;14.89;39.60;95602.69;5074142;28;20490;-70
2023/10/09 06:32:50;;;;;;;2.20;1.02;;;;;;;18.96;32.22;95588.31;5069340;28;20421;-71
2023/10/09 06:35:21;;;;;;;2.95;0.80;;;;;;;20.39;29.70;95581.78;5071926;28;20173;-73
2023/10/09 06:43:17;;;;;;;1.77;0.80;;;;;;;23.27;25.06;95600.56;5075120;28;20501;-72
2023/10/09 06:45:45;;;;;;;1.73;1.00;;;;;;;23.94;24.38;95602.06;5067915;28;20082;-72
2023/10/09 06:51:03;;;;;;;4.57;0.80;;;;;;;23.11;25.28;95608.72;5067733;28;20418;-72
2023/10/09 06:54:15;;;;;;;1.70;0.90;;;;;;;24.56;23.56;95595.22;5068803;28;20043;-72
2023/10/09 06:59:04;;;;;;;2.53;0.80;;;;;;;23.96;23.12;95600.06;5067826;28;20556;-72
2023/10/09 07:04:19;;;;;;;2.00;0.98;;;;;;;25.12;22.59;95600.38;5068760;28;20048;-72
2023/10/09 07:16:57;;;;;;;2.47;0.90;;;;;;;24.39;22.51;95585.88;5073913;28;20043;-72
2023/10/09 07:19:56;;;;;;;5.60;0.93;;;;;;;24.96;21.96;95612.19;5073405;28;20536;-72
2023/10/09 07:25:14;;;;;;;3.35;0.93;;;;;;;26.11;20.90;95604.34;5073321;28;20472;-72
2023/10/09 07:27:48;;;;;;;3.33;0.90;;;;;;;25.85;20.64;95603.31;5073428;28;20024;-72
2023/10/09 07:33:06;;;;;;;;;;;;;;;26.20;20.41;95597.78;5073905;28;20024;-72
2023/10/09 07:35:46;;;;;;;2.22;1.00;;;;;;;26.26;20.25;95610.28;5073183;28;20375;-72
2023/10/09 07:38:19;;;;;;;2.13;1.00;;;;;;;25.37;20.38;95597.25;5073191;28;20131;-72
2023/10/09 07:43:39;;;;;;;2.03;0.85;;;;;;;25.25;20.09;95594.34;5073391;28;20105;-72
2023/10/09 07:48:52;;;;;;;2.20;0.73;;;;;;;25.47;19.73;95583.56;5059068;28;20098;-71
2023/10/09 07:51:23;;;;;;;2.72;1.00;;;;;;;24.56;21.10;95575.81;5072699;28;20062;-72
2023/10/09 07:53:57;;;;;;;1.40;0.80;;;;;;;24.27;21.70;95597.03;5072880;28;20060;-71
2023/10/09 07:56:30;;;;;;;2.15;0.80;;;;;;;24.11;22.09;95596.50;5072653;28;20086;-71
2023/10/09 07:59:00;;;;;;;2.92;1.02;;;;;;;23.36;22.79;95610.03;5056704;28;20033;-72
2023/10/09 08:04:05;;;;;;;1.55;0.70;;;;;;;22.32;23.10;95608.44;5072530;28;20051;-72
2023/10/09 08:06:42;;;;;;;4.15;1.10;;;;;;;21.98;23.95;95610.53;5074002;28;20035;-72
2023/10/09 08:14:41;;;;;;;3.75;0.70;;;;;;;20.63;25.43;95565.09;5072621;28;20040;-72
2023/10/09 08:17:11;;;;;;;3.55;1.05;;;;;;;20.02;26.22;95614.81;5072829;28;20127;-72
2023/10/09 08:20:11;;;;;;;1.92;0.95;;;;;;;19.73;26.23;95609.22;5073760;28;20029;-72
2023/10/09 08:22:42;;;;;;;1.65;0.73;;;;;;;19.62;26.50;95611.16;5072708;28;20517;-72
2023/10/09 08:25:26;;;;;;;1.73;0.85;;;;;;;19.56;26.17;95616.28;5072179;28;20510;-72
2023/10/09 08:27:55;;;;;;;2.95;1.00;;;;;;;19.18;27.00;95592.97;5043125;28;20520;-72
2023/10/09 08:35:48;;;;;;;2.38;0.90;;;;;;;19.16;27.31;95578.31;5056469;28;20503;-72
2023/10/09 08:38:14;;;;;;;2.15;0.98;;;;;;;18.59;27.70;95555.25;5072064;28;20035;-72
2023/10/09 08:40:40;;;;;;;2.80;0.90;;;;;;;18.46;28.01;95586.44;5055166;28;20028;-72
2023/10/09 08:43:12;;;;;;;2.85;0.93;;;;;;;18.69;29.03;95581.44;5073106;28;20389;-72
2023/10/09 08:45:41;;;;;;;4.68;1.13;;;;;;;18.60;28.48;95570.03;5072821;28;20024;-72
2023/10/09 08:48:08;;;;;;;1.40;0.80;;;;;;;18.55;28.63;95567.06;5071772;28;20466;-72
2023/10/09 08:50:34;;;;;;;1.60;0.80;;;;;;;18.07;28.28;95547.44;5055033;28;20560;-72
2023/10/09 08:53:00;;;;;;;2.55;0.85;;;;;;;17.98;28.31;95556.25;5072805;28;20066;-72
2023/10/09 08:55:26;;;;;;;2.25;0.93;;;;;;;18.24;28.92;95559.69;5055196;28;20032;-72
2023/10/09 08:57:52;;;;;;;2.85;1.15;;;;;;;18.20;29.34;95549.66;5072807;28;20021;-72
2023/10/09 09:00:23;;;;;;;1.83;1.00;;;;;;;18.20;28.72;95562.78;5054808;28;20048;-72
2023/10/09 09:02:55;;;;;;;1.90;0.80;;;;;;;18.41;28.72;95539.53;5072721;28;20025;-72
2023/10/09 09:05:20;;;;;;;2.20;0.98;;;;;;;18.51;28.61;95560.47;5072748;28;20043;-72
2023/10/09 09:07:46;;;;;;;3.28;0.90;;;;;;;18.28;28.00;95560.22;5071362;28;20029;-72
2023/10/09 09:10:17;;;;;;;1.80;0.70;;;;;;;18.37;27.42;95558.44;5038202;28;20119;-72
2023/10/09 09:13:00;;;;;;;1.95;0.82;;;;;;;18.35;27.98;95544.63;5071347;28;20078;-72
2023/10/09 09:15:27;;;;;;;1.70;0.80;;;;;;;18.35;28.74;95560.41;5071235;28;20544;-72
2023/10/09 09:17:53;;;;;;;2.00;1.08;;;;;;;18.52;28.98;95559.50;5071051;28;20055;-72
2023/10/09 09:20:23;;;;;;;2.35;1.25;;;;;;;18.44;28.89;95567.34;5054470;28;20024;-72
2023/10/09 09:22:58;;;;;;;5.55;2.80;;;;;;;18.49;27.92;95565.06;5070999;28;20513;-72
2023/10/09 09:25:31;;;;;;;2.90;1.17;;;;;;;18.05;26.64;95530.97;5070896;28;20039;-72
2023/10/09 09:27:57;;;;;;;5.30;2.10;;;;;;;18.25;27.68;95563.97;5070947;28;20028;-72
2023/10/09 09:30:24;;;;;;;1.40;0.73;;;;;;;18.21;27.75;95551.28;5070855;28;20035;-72
2023/10/09 09:33:15;;;;;;;2.33;0.90;;;;;;;18.23;27.69;95560.66;5036685;28;20021;-72
2023/10/09 09:35:34;;;;;;;4.88;1.17;;;;;;;18.22;27.95;95559.03;5070762;28;20050;-72
2023/10/09 09:38:04;;;;;;;1.70;0.80;;;;;;;17.96;27.37;95511.72;5054177;28;20402;-72
2023/10/09 09:40:30;;;;;;;2.78;0.93;;;;;;;18.18;27.04;95543.72;5071898;28;20025;-72
2023/10/09 09:43:05;;;;;;;2.38;1.00;;;;;;;18.03;27.58;95522.44;5037376;28;20185;-72
2023/10/09 09:45:37;;;;;;;2.28;1.00;;;;;;;18.06;27.89;95537.91;5054567;28;20035;-71
2023/10/09 09:48:06;;;;;;;3.50;1.02;;;;;;;18.04;27.69;95539.84;5053821;28;20024;-72
2023/10/09 09:50:38;;;;;;;2.03;0.80;;;;;;;18.34;27.22;95535.09;5071619;28;20493;-72
2023/10/09 09:53:08;;;;;;;1.95;0.82;;;;;;;18.30;27.47;95527.53;5070560;28;20020;-72
2023/10/09 09:55:34;;;;;;;1.65;0.80;;;;;;;18.22;27.12;95530.09;5070313;28;20494;-71
2023/10/09 09:57:59;;;;;;;2.58;1.05;;;;;;;18.23;27.17;95533.56;5071552;28;20021;-72
2023/10/09 10:00:42;;;;;;;2.15;1.00;;;;;;;18.45;28.08;95521.66;5053516;28;20544;-72
2023/10/09 10:03:38;;;;;;;2.45;1.00;;;;;;;18.51;27.33;95528.91;5056086;28;20379;-71
2023/10/09 10:06:09;;;;;;;3.80;1.00;;;;;;;18.33;27.05;95507.13;5057804;28;20036;-72
2023/10/09 10:08:35;;;;;;;2.03;0.93;;;;;;;18.58;27.42;95508.88;5054450;28;20043;-72
2023/10/09 10:11:13;;;;;;;3.28;0.93;;;;;;;18.44;27.87;95497.16;5070084;28;20024;-72
2023/10/09 10:13:42;;;;;;;2.28;1.02;;;;;;;18.51;27.99;95506.06;5040587;28;20045;-72
2023/10/09 10:21:48;;;;;;;2.80;0.80;;;;;;;18.53;27.21;95484.88;5070325;28;20028;-72
2023/10/09 10:24:28;;;;;;;;;;;;;;;18.65;28.07;95480.94;5071805;28;20044;-72
2023/10/09 10:27:18;;;;;;;1.63;0.80;;;;;;;18.85;26.96;95480.69;5071084;28;19919;-72
2023/10/09 10:29:46;;;;;;;2.85;0.90;;;;;;;18.69;27.43;95471.75;5069975;28;20405;-71
2023/10/09 10:32:11;;;;;;;2.88;0.90;;;;;;;18.74;27.37;95474.75;5053674;28;20036;-71
2023/10/09 10:34:46;;;;;;;2.10;0.80;;;;;;;18.79;27.53;95468.19;5036708;28;20032;-71
2023/10/09 10:37:13;;;;;;;3.40;1.10;;;;;;;18.66;27.04;95461.53;5071024;28;20063;-71
2023/10/09 10:39:50;;;;;;;2.90;0.90;;;;;;;18.55;26.78;95459.19;5069895;28;20058;-72
2023/10/09 10:42:33;;;;;;;2.35;1.00;;;;;;;18.50;26.57;95454.44;5052974;28;20024;-72
2023/10/09 10:45:02;;;;;;;2.92;0.90;;;;;;;18.43;26.00;95423.66;5069454;28;20090;-72
2023/10/09 10:47:34;;;;;;;1.75;0.80;;;;;;;18.20;26.26;95419.00;5053332;28;20040;-71
2023/10/09 10:53:13;;;;;;;4.43;1.10;;;;;;;18.24;27.58;95420.31;5016927;28;20037;-72
2023/10/09 10:58:23;;;;;;;2.78;1.00;;;;;;;18.36;27.29;95406.88;5070982;28;20479;-72
2023/10/09 11:03:29;;;;;;;3.63;1.35;;;;;;;18.55;26.76;95411.84;5053621;28;20063;-72
2023/10/09 11:06:12;;;;;;;3.70;1.30;;;;;;;18.58;27.37;95414.16;5053629;28;20028;-72
2023/10/09 11:08:43;;;;;;;2.10;1.00;;;;;;;18.79;27.40;95403.22;5070805;28;20119;-71
2023/10/09 11:11:15;;;;;;;2.03;0.98;;;;;;;18.72;27.41;95397.75;5069548;28;20025;-72
2023/10/09 11:13:56;;;;;;;1.90;0.88;;;;;;;18.77;27.28;95399.09;5070696;28;20059;-72
2023/10/09 11:16:34;;;;;;;2.05;1.05;;;;;;;18.91;26.91;95395.81;5069510;28;20028;-72
2023/10/09 11:19:13;;;;;;;3.33;1.00;;;;;;;19.16;25.63;95383.44;5055292;28;20072;-71
2023/10/09 11:21:42;;;;;;;2.92;1.02;;;;;;;18.89;26.27;95377.56;5070502;28;20025;-72
2023/10/09 11:24:26;;;;;;;3.88;1.33;;;;;;;19.15;25.69;95366.03;5036999;28;20043;-71
2023/10/09 11:26:55;;;;;;;1.75;0.93;;;;;;;19.09;26.35;95346.44;5069513;28;20020;-72
2023/10/09 11:29:52;;;;;;;2.13;1.00;;;;;;;19.29;26.69;95351.34;5053119;28;20043;-72
2023/10/09 11:32:18;;;;;;;2.15;0.90;;;;;;;19.16;27.16;95336.06;5055777;28;20119;-72
2023/10/09 11:34:52;;;;;;;1.60;0.80;;;;;;;19.18;26.21;95334.09;5053070;28;20505;-72
2023/10/09 11:38:20;;;;;;;3.17;1.27;;;;;;;19.13;25.65;95333.75;5053793;28;20044;-72
2023/10/09 11:41:05;;;;;;;3.78;1.10;;;;;;;19.14;26.09;95333.59;5061139;28;20054;-71
2023/10/09 11:43:53;;;;;;;3.10;1.08;;;;;;;19.38;26.19;95345.06;5055893;28;20064;-72
2023/10/09 11:46:11;;;;;;;4.70;1.20;;;;;;;19.45;25.90;95340.78;5053980;28;20040;-72
2023/10/09 11:48:49;;;;;;;5.85;1.45;;;;;;;19.52;26.44;95343.56;5070129;28;20055;-72
2023/10/09 11:51:18;;;;;;;2.58;1.17;;;;;;;19.48;26.31;95347.53;5070217;28;20028;-72
2023/10/09 11:53:49;;;;;;;2.28;1.00;;;;;;;19.57;25.99;95328.06;5069132;28;20514;-72
2023/10/09 11:56:19;;;;;;;3.05;1.30;;;;;;;19.44;26.77;95339.13;5069611;28;20036;-72
2023/10/09 11:58:49;;;;;;;3.72;1.20;;;;;;;19.32;26.22;95335.22;5056494;28;20036;-72
2023/10/09 12:01:20;;;;;;;2.22;1.10;;;;;;;19.33;26.24;95300.78;5056403;28;20068;-72
2023/10/09 12:03:53;;;;;;;3.72;1.30;;;;;;;19.52;26.18;95310.13;5072519;28;20041;-71
2023/10/09 12:06:22;;;;;;;2.78;1.20;;;;;;;19.43;25.75;95287.44;5056992;28;20044;-70
2023/10/09 12:08:47;;;;;;;3.28;1.40;;;;;;;19.37;25.66;95301.28;5072574;28;20029;-71
2023/10/09 12:11:14;;;;;;;2.88;1.23;;;;;;;19.46;26.87;95279.19;5055708;28;20056;-70
2023/10/09 12:13:42;;;;;;;4.28;1.83;;;;;;;19.52;26.35;95282.94;5072483;28;20090;-71
2023/10/09 12:16:10;;;;;;;3.35;1.70;;;;;;;19.29;25.96;95257.34;5072298;28;20025;-69
2023/10/09 12:18:36;;;;;;;4.55;1.85;;;;;;;19.75;24.86;95275.13;5056000;28;20461;-71
2023/10/09 12:21:03;;;;;;;2.60;1.52;;;;;;;19.70;24.93;95277.50;5072250;28;20081;-71
2023/10/09 12:23:29;;;;;;;4.97;2.08;;;;;;;19.57;25.61;95276.19;5055748;28;20086;-70
2023/10/09 12:25:56;;;;;;;3.40;2.20;;;;;;;19.56;25.57;95276.38;5055447;28;20029;-71
2023/10/09 12:28:22;;;;;;;4.85;1.73;;;;;;;19.63;25.26;95277.31;5072073;28;20033;-71
2023/10/09 12:30:50;;;;;;;3.45;1.83;;;;;;;19.58;25.48;95282.25;5055402;28;20077;-71
2023/10/09 12:33:19;;;;;;;3.08;1.55;;;;;;;19.65;25.67;95272.69;5071987;28;20089;-71
2023/10/09 12:35:47;;;;;;;4.75;1.80;;;;;;;19.73;25.12;95263.97;5055739;28;20028;-71
2023/10/09 12:38:18;;;;;;;4.10;1.80;;;;;;;19.79;25.42;95260.63;5071971;28;20040;-71
2023/10/09 12:40:50;;;;;;;;;;;;;;;19.89;24.88;95248.03;5072418;28;20539;-70
2023/10/09 12:43:19;;;;;;;5.10;1.77;;;;;;;19.76;24.70;95243.34;5073105;28;19973;-71
2023/10/09 12:45:45;;;;;;;3.05;1.85;;;;;;;19.85;24.52;95246.75;5071750;28;20048;-71
2023/10/09 12:48:12;;;;;;;3.63;1.55;;;;;;;19.83;24.81;95239.00;5071789;28;20020;-70
2023/10/09 12:50:41;;;;;;;4.38;1.70;;;;;;;19.91;24.85;95239.97;5071680;28;20028;-71
2023/10/09 12:53:07;;;;;;;4.05;1.70;;;;;;;19.99;24.45;95239.91;5055510;28;20035;-70
2023/10/09 12:55:42;;;;;;;3.30;1.67;;;;;;;20.17;24.34;95239.63;5071554;28;20403;-71
2023/10/09 12:58:09;;;;;;;3.85;1.58;;;;;;;20.16;24.20;95227.44;5055750;28;20027;-71
2023/10/09 13:00:39;;;;;;;3.15;1.55;;;;;;;20.15;24.27;95228.44;5054775;28;20477;-71
2023/10/09 13:03:16;;;;;;;3.17;1.33;;;;;;;20.02;24.58;95223.75;5071494;28;20085;-71
2023/10/09 13:05:51;;;;;;;2.20;1.30;;;;;;;20.16;23.89;95216.91;5071472;28;20454;-71
2023/10/09 13:08:36;;;;;;;2.40;1.20;;;;;;;19.89;24.18;95219.03;5071266;28;20029;-71
2023/10/09 13:11:10;;;;;;;2.95;1.55;;;;;;;19.88;24.92;95208.69;5056107;28;20026;-70
2023/10/09 13:13:41;;;;;;;2.50;1.20;;;;;;;19.98;23.91;95217.19;5037843;28;20461;-71
2023/10/09 13:16:22;;;;;;;5.35;1.30;;;;;;;20.16;23.61;95206.34;5039065;28;20055;-70
2023/10/09 13:18:51;;;;;;;2.58;1.23;;;;;;;20.10;23.70;95199.97;5071368;28;20044;-71
2023/10/09 13:21:23;;;;;;;4.80;1.17;;;;;;;20.05;23.28;95200.47;5070935;28;20032;-71
2023/10/09 13:23:50;;;;;;;3.15;1.20;;;;;;;20.16;22.94;95185.25;5054507;28;20052;-71
2023/10/09 13:26:21;;;;;;;4.32;1.27;;;;;;;20.18;23.44;95191.16;5070945;28;20044;-71
2023/10/09 13:28:51;;;;;;;3.95;1.20;;;;;;;20.25;24.13;95190.28;5060006;28;20089;-71
2023/10/09 13:31:17;;;;;;;3.03;1.30;;;;;;;20.38;23.12;95188.84;5085800;28;20028;-71
2023/10/09 13:33:42;;;;;;;3.67;1.27;;;;;;;20.15;23.76;95173.06;5070892;28;20032;-71
2023/10/09 13:36:19;;;;;;;2.83;1.20;;;;;;;20.37;22.83;95177.50;5053939;28;20406;-70
2023/10/09 13:38:48;;;;;;;4.15;1.02;;;;;;;20.26;21.80;95180.56;5055124;28;20449;-71
2023/10/09 13:41:14;;;;;;;1.90;0.90;;;;;;;20.43;20.77;95171.50;5053894;28;20409;-71
2023/10/09 13:43:40;;;;;;;3.17;0.95;;;;;;;20.50;21.12;95182.13;5070639;28;20040;-72
2023/10/09 13:46:08;;;;;;;2.78;0.90;;;;;;;20.59;20.92;95164.44;5071660;28;20063;-76
2023/10/09 13:48:38;;;;;;;3.35;0.98;;;;;;;20.58;20.80;95173.38;5085485;28;20059;-75
2023/10/09 13:51:08;;;;;;;1.67;0.70;;;;;;;20.53;20.59;95165.97;5090539;28;20034;-75
2023/10/09 13:53:44;;;;;;;5.05;1.00;;;;;;;20.53;21.36;95156.28;5091932;28;20036;-75
2023/10/09 13:56:20;;;;;;;2.38;1.00;;;;;;;20.69;19.88;95163.19;5074402;28;20044;-74
2023/10/09 13:58:50;;;;;;;1.75;0.90;;;;;;;20.51;20.39;95145.03;5074709;28;20065;-75
2023/10/09 14:01:28;;;;;;;3.55;1.30;;;;;;;20.73;19.67;95167.13;5070136;28;20056;-74
2023/10/09 14:03:55;;;;;;;3.70;1.20;;;;;;;20.81;20.64;95154.81;5082450;28;20430;-75
2023/10/09 14:06:30;;;;;;;3.90;1.27;;;;;;;20.43;20.94;95124.00;5062580;28;20038;-74
2023/10/09 14:08:58;;;;;;;4.70;1.50;;;;;;;20.81;20.35;95144.25;5055719;28;20062;-73
2023/10/09 14:11:25;;;;;;;3.53;1.00;;;;;;;20.50;20.77;95110.91;5069991;28;20028;-75